KRHV/RHV METAR and TAF weather

Enter ICAO airport designator
Station Type Date Time Source
KRHV METAR 2021/08/02 02:47 UTC NOAA

KRHV 020247Z 32008KT 10SM SKC 21/13 A3004


Station Type Date Time Source
KRHV Decoded METAR 2021/08/02 02:47 UTC NOAA

San Jose / Reid / Hillv, CA, United States (KRHV) 37-20N 121-49W
Aug 01, 2021 - 10:47 PM EDT / 2021.08.02 0247 UTC
Wind: from the NW (320 degrees) at 9 MPH (8 KT):0
Visibility: 10 mile(s):0
Sky conditions: clear
Temperature: 69 F (21 C)
Dew Point: 55 F (13 C)
Relative Humidity: 60%
Pressure (altimeter): 30.04 in. Hg (1017 hPa)
ob: KRHV 020247Z 32008KT 10SM SKC 21/13 A3004
cycle: 3

Station Type Date Time Source
KRHV TAF UTC NOAA

Error!

Example: see airport list